sensor_id;sensor_type;location;lat;lon;timestamp;P1;durP1;ratioP1;P2;durP2;ratioP2
30048;SDS011;16879;50.852;15.602;2024-01-27T00:02:06;6.22;;;1.77;;
30048;SDS011;16879;50.852;15.602;2024-01-27T00:04:32;12.57;;;1.95;;
30048;SDS011;16879;50.852;15.602;2024-01-27T00:06:58;10.85;;;2.08;;
30048;SDS011;16879;50.852;15.602;2024-01-27T00:09:24;29.77;;;5.10;;
30048;SDS011;16879;50.852;15.602;2024-01-27T00:11:50;9.85;;;2.20;;
30048;SDS011;16879;50.852;15.602;2024-01-27T00:14:16;8.57;;;1.83;;
30048;SDS011;16879;50.852;15.602;2024-01-27T00:16:42;7.55;;;1.52;;
30048;SDS011;16879;50.852;15.602;2024-01-27T00:19:08;18.75;;;2.38;;
30048;SDS011;16879;50.852;15.602;2024-01-27T00:21:34;12.93;;;3.25;;
30048;SDS011;16879;50.852;15.602;2024-01-27T00:24:00;12.95;;;2.65;;
30048;SDS011;16879;50.852;15.602;2024-01-27T00:26:28;7.10;;;2.53;;
30048;SDS011;16879;50.852;15.602;2024-01-27T00:28:54;12.43;;;2.05;;
30048;SDS011;16879;50.852;15.602;2024-01-27T00:31:20;6.63;;;1.88;;
30048;SDS011;16879;50.852;15.602;2024-01-27T00:33:46;11.07;;;1.60;;
30048;SDS011;16879;50.852;15.602;2024-01-27T00:36:12;10.07;;;2.22;;
30048;SDS011;16879;50.852;15.602;2024-01-27T00:38:38;13.27;;;2.28;;
30048;SDS011;16879;50.852;15.602;2024-01-27T00:41:04;18.90;;;4.13;;
30048;SDS011;16879;50.852;15.602;2024-01-27T00:43:30;12.50;;;2.92;;
30048;SDS011;16879;50.852;15.602;2024-01-27T00:45:56;20.23;;;2.97;;
30048;SDS011;16879;50.852;15.602;2024-01-27T00:48:22;16.20;;;2.58;;
30048;SDS011;16879;50.852;15.602;2024-01-27T00:50:48;12.40;;;2.42;;
30048;SDS011;16879;50.852;15.602;2024-01-27T00:53:14;12.70;;;2.10;;
30048;SDS011;16879;50.852;15.602;2024-01-27T00:55:40;15.27;;;3.55;;
30048;SDS011;16879;50.852;15.602;2024-01-27T00:58:07;8.63;;;2.00;;
30048;SDS011;16879;50.852;15.602;2024-01-27T01:00:33;15.77;;;2.67;;
30048;SDS011;16879;50.852;15.602;2024-01-27T01:02:59;12.32;;;2.28;;
30048;SDS011;16879;50.852;15.602;2024-01-27T01:05:25;11.90;;;2.58;;
30048;SDS011;16879;50.852;15.602;2024-01-27T01:07:51;17.02;;;3.55;;
30048;SDS011;16879;50.852;15.602;2024-01-27T01:10:17;11.40;;;2.67;;
30048;SDS011;16879;50.852;15.602;2024-01-27T01:12:44;7.07;;;1.98;;
30048;SDS011;16879;50.852;15.602;2024-01-27T01:15:10;12.68;;;2.80;;
30048;SDS011;16879;50.852;15.602;2024-01-27T01:17:36;13.80;;;2.70;;
30048;SDS011;16879;50.852;15.602;2024-01-27T01:20:02;6.60;;;2.03;;
30048;SDS011;16879;50.852;15.602;2024-01-27T01:22:28;13.15;;;3.05;;
30048;SDS011;16879;50.852;15.602;2024-01-27T01:24:54;10.93;;;3.88;;
30048;SDS011;16879;50.852;15.602;2024-01-27T01:27:20;11.15;;;2.42;;
30048;SDS011;16879;50.852;15.602;2024-01-27T01:29:46;13.65;;;2.20;;
30048;SDS011;16879;50.852;15.602;2024-01-27T01:32:12;12.43;;;2.17;;
30048;SDS011;16879;50.852;15.602;2024-01-27T01:34:38;9.60;;;3.00;;
30048;SDS011;16879;50.852;15.602;2024-01-27T01:37:04;7.60;;;1.92;;
30048;SDS011;16879;50.852;15.602;2024-01-27T01:39:30;9.73;;;2.13;;
30048;SDS011;16879;50.852;15.602;2024-01-27T01:41:56;5.93;;;1.83;;
30048;SDS011;16879;50.852;15.602;2024-01-27T01:44:22;18.42;;;3.35;;
30048;SDS011;16879;50.852;15.602;2024-01-27T01:46:54;10.70;;;2.25;;
30048;SDS011;16879;50.852;15.602;2024-01-27T01:49:20;15.82;;;2.65;;
30048;SDS011;16879;50.852;15.602;2024-01-27T01:51:46;10.40;;;1.90;;
30048;SDS011;16879;50.852;15.602;2024-01-27T01:54:12;14.57;;;3.08;;
30048;SDS011;16879;50.852;15.602;2024-01-27T01:56:38;12.00;;;2.45;;
30048;SDS011;16879;50.852;15.602;2024-01-27T01:59:04;7.65;;;2.35;;
30048;SDS011;16879;50.852;15.602;2024-01-27T02:01:31;9.85;;;2.15;;
30048;SDS011;16879;50.852;15.602;2024-01-27T02:03:57;12.95;;;3.85;;
30048;SDS011;16879;50.852;15.602;2024-01-27T02:06:23;14.52;;;2.80;;
30048;SDS011;16879;50.852;15.602;2024-01-27T02:08:49;7.05;;;1.90;;
30048;SDS011;16879;50.852;15.602;2024-01-27T02:11:16;8.15;;;1.90;;
30048;SDS011;16879;50.852;15.602;2024-01-27T02:13:43;13.13;;;2.00;;
30048;SDS011;16879;50.852;15.602;2024-01-27T02:16:09;18.00;;;2.97;;
30048;SDS011;16879;50.852;15.602;2024-01-27T02:18:35;11.45;;;2.20;;
30048;SDS011;16879;50.852;15.602;2024-01-27T02:21:02;15.20;;;2.38;;
30048;SDS011;16879;50.852;15.602;2024-01-27T02:23:28;9.98;;;2.17;;
30048;SDS011;16879;50.852;15.602;2024-01-27T02:25:54;7.88;;;1.80;;
30048;SDS011;16879;50.852;15.602;2024-01-27T02:28:20;9.40;;;2.80;;
30048;SDS011;16879;50.852;15.602;2024-01-27T02:30:48;8.57;;;2.95;;
30048;SDS011;16879;50.852;15.602;2024-01-27T02:33:14;11.77;;;2.70;;
30048;SDS011;16879;50.852;15.602;2024-01-27T02:35:40;14.90;;;3.28;;
30048;SDS011;16879;50.852;15.602;2024-01-27T02:38:06;20.50;;;3.13;;
30048;SDS011;16879;50.852;15.602;2024-01-27T02:40:32;16.48;;;2.67;;
30048;SDS011;16879;50.852;15.602;2024-01-27T02:42:58;13.20;;;2.53;;
30048;SDS011;16879;50.852;15.602;2024-01-27T02:45:24;12.05;;;2.40;;
30048;SDS011;16879;50.852;15.602;2024-01-27T02:47:50;8.02;;;1.90;;
30048;SDS011;16879;50.852;15.602;2024-01-27T02:50:16;9.63;;;2.30;;
30048;SDS011;16879;50.852;15.602;2024-01-27T02:52:42;11.32;;;2.78;;
30048;SDS011;16879;50.852;15.602;2024-01-27T02:55:08;12.40;;;2.20;;
30048;SDS011;16879;50.852;15.602;2024-01-27T02:57:34;7.78;;;3.53;;
30048;SDS011;16879;50.852;15.602;2024-01-27T03:00:00;19.38;;;2.70;;
30048;SDS011;16879;50.852;15.602;2024-01-27T03:02:26;8.65;;;1.90;;
30048;SDS011;16879;50.852;15.602;2024-01-27T03:04:52;12.95;;;2.33;;
30048;SDS011;16879;50.852;15.602;2024-01-27T03:07:18;12.55;;;2.78;;
30048;SDS011;16879;50.852;15.602;2024-01-27T03:09:44;12.30;;;2.70;;
30048;SDS011;16879;50.852;15.602;2024-01-27T03:12:10;18.25;;;3.08;;
30048;SDS011;16879;50.852;15.602;2024-01-27T03:14:36;13.40;;;2.40;;
30048;SDS011;16879;50.852;15.602;2024-01-27T03:17:02;14.07;;;2.65;;
30048;SDS011;16879;50.852;15.602;2024-01-27T03:19:28;16.85;;;3.05;;
30048;SDS011;16879;50.852;15.602;2024-01-27T03:21:54;15.52;;;2.60;;
30048;SDS011;16879;50.852;15.602;2024-01-27T03:24:20;5.80;;;2.30;;
30048;SDS011;16879;50.852;15.602;2024-01-27T03:26:46;10.77;;;2.35;;
30048;SDS011;16879;50.852;15.602;2024-01-27T03:29:12;15.20;;;3.53;;
30048;SDS011;16879;50.852;15.602;2024-01-27T03:31:38;16.45;;;2.92;;
30048;SDS011;16879;50.852;15.602;2024-01-27T03:34:04;13.13;;;3.53;;
30048;SDS011;16879;50.852;15.602;2024-01-27T03:36:30;10.82;;;2.13;;
30048;SDS011;16879;50.852;15.602;2024-01-27T03:38:56;20.05;;;3.90;;
30048;SDS011;16879;50.852;15.602;2024-01-27T03:41:23;9.65;;;2.25;;
30048;SDS011;16879;50.852;15.602;2024-01-27T03:43:49;16.50;;;3.63;;
30048;SDS011;16879;50.852;15.602;2024-01-27T03:46:15;24.08;;;3.80;;
30048;SDS011;16879;50.852;15.602;2024-01-27T03:48:40;14.98;;;3.08;;
30048;SDS011;16879;50.852;15.602;2024-01-27T03:51:06;15.82;;;2.92;;
30048;SDS011;16879;50.852;15.602;2024-01-27T03:53:32;10.82;;;3.03;;
30048;SDS011;16879;50.852;15.602;2024-01-27T03:55:58;14.45;;;3.03;;
30048;SDS011;16879;50.852;15.602;2024-01-27T03:58:27;13.40;;;2.92;;
30048;SDS011;16879;50.852;15.602;2024-01-27T04:00:53;11.65;;;2.17;;
30048;SDS011;16879;50.852;15.602;2024-01-27T04:03:20;16.20;;;2.78;;
30048;SDS011;16879;50.852;15.602;2024-01-27T04:05:46;8.25;;;3.42;;
30048;SDS011;16879;50.852;15.602;2024-01-27T04:08:12;11.00;;;2.17;;
30048;SDS011;16879;50.852;15.602;2024-01-27T04:10:38;13.02;;;2.63;;
30048;SDS011;16879;50.852;15.602;2024-01-27T04:13:04;11.55;;;2.40;;
30048;SDS011;16879;50.852;15.602;2024-01-27T04:15:33;13.02;;;2.58;;
30048;SDS011;16879;50.852;15.602;2024-01-27T04:18:03;15.00;;;2.85;;
30048;SDS011;16879;50.852;15.602;2024-01-27T04:20:30;12.73;;;2.72;;
30048;SDS011;16879;50.852;15.602;2024-01-27T04:22:56;13.77;;;2.33;;
30048;SDS011;16879;50.852;15.602;2024-01-27T04:25:22;13.02;;;1.92;;
30048;SDS011;16879;50.852;15.602;2024-01-27T04:27:48;8.95;;;2.15;;
30048;SDS011;16879;50.852;15.602;2024-01-27T04:30:14;15.45;;;2.95;;
30048;SDS011;16879;50.852;15.602;2024-01-27T04:32:40;15.55;;;4.00;;
30048;SDS011;16879;50.852;15.602;2024-01-27T04:35:09;9.88;;;2.80;;
30048;SDS011;16879;50.852;15.602;2024-01-27T04:37:36;12.15;;;2.63;;
30048;SDS011;16879;50.852;15.602;2024-01-27T04:40:03;13.35;;;2.58;;
30048;SDS011;16879;50.852;15.602;2024-01-27T04:42:32;11.45;;;2.70;;
30048;SDS011;16879;50.852;15.602;2024-01-27T04:44:58;13.48;;;2.42;;
30048;SDS011;16879;50.852;15.602;2024-01-27T04:47:24;19.63;;;4.28;;
30048;SDS011;16879;50.852;15.602;2024-01-27T04:49:51;14.32;;;3.50;;
30048;SDS011;16879;50.852;15.602;2024-01-27T04:52:17;14.25;;;3.13;;
30048;SDS011;16879;50.852;15.602;2024-01-27T04:54:42;19.15;;;2.97;;
30048;SDS011;16879;50.852;15.602;2024-01-27T04:57:08;13.68;;;3.28;;
30048;SDS011;16879;50.852;15.602;2024-01-27T04:59:35;14.98;;;2.85;;
30048;SDS011;16879;50.852;15.602;2024-01-27T05:02:01;12.93;;;3.13;;
30048;SDS011;16879;50.852;15.602;2024-01-27T05:04:27;15.23;;;3.45;;
30048;SDS011;16879;50.852;15.602;2024-01-27T05:06:56;14.45;;;2.38;;
30048;SDS011;16879;50.852;15.602;2024-01-27T05:09:22;11.57;;;2.33;;
30048;SDS011;16879;50.852;15.602;2024-01-27T05:11:48;6.32;;;1.90;;
30048;SDS011;16879;50.852;15.602;2024-01-27T05:14:16;12.95;;;4.10;;
30048;SDS011;16879;50.852;15.602;2024-01-27T05:16:43;12.43;;;2.95;;
30048;SDS011;16879;50.852;15.602;2024-01-27T05:19:09;18.83;;;2.80;;
30048;SDS011;16879;50.852;15.602;2024-01-27T05:21:35;19.95;;;2.92;;
30048;SDS011;16879;50.852;15.602;2024-01-27T05:24:02;15.63;;;2.78;;
30048;SDS011;16879;50.852;15.602;2024-01-27T05:26:28;15.13;;;4.28;;
30048;SDS011;16879;50.852;15.602;2024-01-27T05:28:54;14.68;;;2.50;;
30048;SDS011;16879;50.852;15.602;2024-01-27T05:31:20;10.25;;;2.72;;
30048;SDS011;16879;50.852;15.602;2024-01-27T05:33:46;23.20;;;2.90;;
30048;SDS011;16879;50.852;15.602;2024-01-27T05:36:12;12.57;;;3.25;;
30048;SDS011;16879;50.852;15.602;2024-01-27T05:38:38;14.68;;;2.88;;
30048;SDS011;16879;50.852;15.602;2024-01-27T05:41:04;13.25;;;2.97;;
30048;SDS011;16879;50.852;15.602;2024-01-27T05:43:30;18.05;;;3.13;;
30048;SDS011;16879;50.852;15.602;2024-01-27T05:45:56;14.27;;;2.95;;
30048;SDS011;16879;50.852;15.602;2024-01-27T05:48:22;18.60;;;2.58;;
30048;SDS011;16879;50.852;15.602;2024-01-27T05:50:54;22.25;;;3.25;;
30048;SDS011;16879;50.852;15.602;2024-01-27T05:53:24;16.25;;;2.92;;
30048;SDS011;16879;50.852;15.602;2024-01-27T05:55:51;13.80;;;2.88;;
30048;SDS011;16879;50.852;15.602;2024-01-27T05:58:20;11.32;;;3.13;;
30048;SDS011;16879;50.852;15.602;2024-01-27T06:00:47;14.13;;;3.50;;
30048;SDS011;16879;50.852;15.602;2024-01-27T06:03:15;17.48;;;2.47;;
30048;SDS011;16879;50.852;15.602;2024-01-27T06:05:42;14.65;;;3.28;;
30048;SDS011;16879;50.852;15.602;2024-01-27T06:08:08;18.80;;;3.55;;
30048;SDS011;16879;50.852;15.602;2024-01-27T06:10:34;13.35;;;5.55;;
30048;SDS011;16879;50.852;15.602;2024-01-27T06:13:04;12.57;;;2.53;;
30048;SDS011;16879;50.852;15.602;2024-01-27T06:15:30;13.77;;;3.20;;
30048;SDS011;16879;50.852;15.602;2024-01-27T06:17:56;12.95;;;2.67;;
30048;SDS011;16879;50.852;15.602;2024-01-27T06:20:24;19.52;;;2.60;;
30048;SDS011;16879;50.852;15.602;2024-01-27T06:22:51;11.90;;;2.80;;
30048;SDS011;16879;50.852;15.602;2024-01-27T06:25:22;16.95;;;2.50;;
30048;SDS011;16879;50.852;15.602;2024-01-27T06:27:48;9.65;;;2.33;;
30048;SDS011;16879;50.852;15.602;2024-01-27T06:30:14;15.38;;;2.67;;
30048;SDS011;16879;50.852;15.602;2024-01-27T06:32:41;17.98;;;2.75;;
30048;SDS011;16879;50.852;15.602;2024-01-27T06:35:07;17.35;;;2.47;;
30048;SDS011;16879;50.852;15.602;2024-01-27T06:37:33;12.82;;;2.83;;
30048;SDS011;16879;50.852;15.602;2024-01-27T06:40:00;16.75;;;3.25;;
30048;SDS011;16879;50.852;15.602;2024-01-27T06:42:26;11.95;;;2.88;;
30048;SDS011;16879;50.852;15.602;2024-01-27T06:44:52;12.52;;;2.63;;
30048;SDS011;16879;50.852;15.602;2024-01-27T06:47:18;9.48;;;2.75;;
30048;SDS011;16879;50.852;15.602;2024-01-27T06:49:44;10.55;;;2.45;;
30048;SDS011;16879;50.852;15.602;2024-01-27T06:52:10;16.95;;;3.33;;
30048;SDS011;16879;50.852;15.602;2024-01-27T06:54:37;15.80;;;2.58;;
30048;SDS011;16879;50.852;15.602;2024-01-27T06:57:17;15.98;;;3.95;;
30048;SDS011;16879;50.852;15.602;2024-01-27T06:59:43;12.98;;;2.63;;
30048;SDS011;16879;50.852;15.602;2024-01-27T07:02:09;18.67;;;3.10;;
30048;SDS011;16879;50.852;15.602;2024-01-27T07:04:39;16.77;;;3.50;;
30048;SDS011;16879;50.852;15.602;2024-01-27T07:07:05;21.08;;;4.90;;
30048;SDS011;16879;50.852;15.602;2024-01-27T07:09:31;18.02;;;3.80;;
30048;SDS011;16879;50.852;15.602;2024-01-27T07:11:57;15.80;;;3.83;;
30048;SDS011;16879;50.852;15.602;2024-01-27T07:14:23;15.82;;;3.50;;
30048;SDS011;16879;50.852;15.602;2024-01-27T07:16:49;14.48;;;3.83;;
30048;SDS011;16879;50.852;15.602;2024-01-27T07:19:15;13.68;;;3.53;;
30048;SDS011;16879;50.852;15.602;2024-01-27T07:21:41;14.52;;;2.53;;
30048;SDS011;16879;50.852;15.602;2024-01-27T07:24:07;12.48;;;3.95;;
30048;SDS011;16879;50.852;15.602;2024-01-27T07:26:33;19.25;;;3.20;;
30048;SDS011;16879;50.852;15.602;2024-01-27T07:29:00;12.95;;;3.15;;
30048;SDS011;16879;50.852;15.602;2024-01-27T07:31:26;15.15;;;5.85;;
30048;SDS011;16879;50.852;15.602;2024-01-27T07:33:52;10.32;;;3.60;;
30048;SDS011;16879;50.852;15.602;2024-01-27T07:36:18;11.90;;;3.45;;
30048;SDS011;16879;50.852;15.602;2024-01-27T07:38:44;12.15;;;3.50;;
30048;SDS011;16879;50.852;15.602;2024-01-27T07:41:10;14.05;;;3.20;;
30048;SDS011;16879;50.852;15.602;2024-01-27T07:43:36;14.75;;;3.55;;
30048;SDS011;16879;50.852;15.602;2024-01-27T07:46:02;13.90;;;4.13;;
30048;SDS011;16879;50.852;15.602;2024-01-27T07:48:28;19.17;;;3.55;;
30048;SDS011;16879;50.852;15.602;2024-01-27T07:50:55;15.70;;;3.10;;
30048;SDS011;16879;50.852;15.602;2024-01-27T07:53:21;10.82;;;2.75;;
30048;SDS011;16879;50.852;15.602;2024-01-27T07:55:48;25.50;;;3.42;;
30048;SDS011;16879;50.852;15.602;2024-01-27T07:58:16;15.82;;;3.15;;
30048;SDS011;16879;50.852;15.602;2024-01-27T08:00:42;18.10;;;3.97;;
30048;SDS011;16879;50.852;15.602;2024-01-27T08:03:08;11.32;;;2.72;;
30048;SDS011;16879;50.852;15.602;2024-01-27T08:05:34;11.18;;;3.03;;
30048;SDS011;16879;50.852;15.602;2024-01-27T08:08:00;9.48;;;3.20;;
30048;SDS011;16879;50.852;15.602;2024-01-27T08:10:26;11.25;;;2.75;;
30048;SDS011;16879;50.852;15.602;2024-01-27T08:12:52;17.65;;;4.45;;
30048;SDS011;16879;50.852;15.602;2024-01-27T08:15:18;12.25;;;3.58;;
30048;SDS011;16879;50.852;15.602;2024-01-27T08:17:44;14.10;;;3.65;;
30048;SDS011;16879;50.852;15.602;2024-01-27T08:20:10;19.48;;;3.92;;
30048;SDS011;16879;50.852;15.602;2024-01-27T08:22:37;15.98;;;4.22;;
30048;SDS011;16879;50.852;15.602;2024-01-27T08:25:03;12.88;;;3.17;;
30048;SDS011;16879;50.852;15.602;2024-01-27T08:27:29;10.80;;;2.97;;
30048;SDS011;16879;50.852;15.602;2024-01-27T08:29:56;18.80;;;3.20;;
30048;SDS011;16879;50.852;15.602;2024-01-27T08:32:22;12.43;;;4.72;;
30048;SDS011;16879;50.852;15.602;2024-01-27T08:34:49;15.07;;;4.03;;
30048;SDS011;16879;50.852;15.602;2024-01-27T08:37:17;16.58;;;4.35;;
30048;SDS011;16879;50.852;15.602;2024-01-27T08:39:44;13.68;;;4.05;;
30048;SDS011;16879;50.852;15.602;2024-01-27T08:42:10;16.58;;;3.17;;
30048;SDS011;16879;50.852;15.602;2024-01-27T08:44:36;18.63;;;3.78;;
30048;SDS011;16879;50.852;15.602;2024-01-27T08:47:03;20.95;;;4.13;;
30048;SDS011;16879;50.852;15.602;2024-01-27T08:49:29;12.52;;;3.03;;
30048;SDS011;16879;50.852;15.602;2024-01-27T08:52:06;12.77;;;4.15;;
30048;SDS011;16879;50.852;15.602;2024-01-27T08:54:32;17.45;;;4.65;;
30048;SDS011;16879;50.852;15.602;2024-01-27T08:56:58;15.88;;;3.55;;
30048;SDS011;16879;50.852;15.602;2024-01-27T08:59:24;20.85;;;4.95;;
30048;SDS011;16879;50.852;15.602;2024-01-27T09:01:51;14.50;;;4.10;;
30048;SDS011;16879;50.852;15.602;2024-01-27T09:04:16;11.68;;;3.42;;
30048;SDS011;16879;50.852;15.602;2024-01-27T09:06:42;12.27;;;3.90;;
30048;SDS011;16879;50.852;15.602;2024-01-27T09:09:08;20.52;;;5.53;;
30048;SDS011;16879;50.852;15.602;2024-01-27T09:11:34;17.52;;;3.85;;
30048;SDS011;16879;50.852;15.602;2024-01-27T09:14:00;15.93;;;4.72;;
30048;SDS011;16879;50.852;15.602;2024-01-27T09:16:26;20.13;;;5.53;;
30048;SDS011;16879;50.852;15.602;2024-01-27T09:18:52;11.82;;;2.75;;
30048;SDS011;16879;50.852;15.602;2024-01-27T09:21:19;19.23;;;4.82;;
30048;SDS011;16879;50.852;15.602;2024-01-27T09:23:47;19.45;;;3.65;;
30048;SDS011;16879;50.852;15.602;2024-01-27T09:26:13;23.35;;;3.28;;
30048;SDS011;16879;50.852;15.602;2024-01-27T09:28:43;11.63;;;4.35;;
30048;SDS011;16879;50.852;15.602;2024-01-27T09:31:10;17.77;;;4.07;;
30048;SDS011;16879;50.852;15.602;2024-01-27T09:33:36;12.95;;;3.40;;
30048;SDS011;16879;50.852;15.602;2024-01-27T09:36:02;14.45;;;3.55;;
30048;SDS011;16879;50.852;15.602;2024-01-27T09:38:29;11.95;;;3.38;;
30048;SDS011;16879;50.852;15.602;2024-01-27T09:40:55;20.17;;;5.88;;
30048;SDS011;16879;50.852;15.602;2024-01-27T09:43:21;11.60;;;3.20;;
30048;SDS011;16879;50.852;15.602;2024-01-27T09:45:47;14.65;;;3.97;;
30048;SDS011;16879;50.852;15.602;2024-01-27T09:48:13;18.70;;;4.35;;
30048;SDS011;16879;50.852;15.602;2024-01-27T09:50:45;15.57;;;5.35;;
30048;SDS011;16879;50.852;15.602;2024-01-27T09:53:13;14.70;;;3.85;;
30048;SDS011;16879;50.852;15.602;2024-01-27T09:55:40;10.95;;;3.97;;
30048;SDS011;16879;50.852;15.602;2024-01-27T09:58:06;17.55;;;4.47;;
30048;SDS011;16879;50.852;15.602;2024-01-27T10:00:34;14.82;;;4.10;;
30048;SDS011;16879;50.852;15.602;2024-01-27T10:03:04;38.95;;;9.80;;
30048;SDS011;16879;50.852;15.602;2024-01-27T10:05:31;21.30;;;4.75;;
30048;SDS011;16879;50.852;15.602;2024-01-27T10:07:57;14.88;;;3.58;;
30048;SDS011;16879;50.852;15.602;2024-01-27T10:10:23;21.58;;;6.30;;
30048;SDS011;16879;50.852;15.602;2024-01-27T10:12:49;23.48;;;4.60;;
30048;SDS011;16879;50.852;15.602;2024-01-27T10:15:24;19.25;;;5.20;;
30048;SDS011;16879;50.852;15.602;2024-01-27T10:17:52;17.25;;;5.28;;
30048;SDS011;16879;50.852;15.602;2024-01-27T10:20:18;19.13;;;4.68;;
30048;SDS011;16879;50.852;15.602;2024-01-27T10:22:44;14.02;;;3.13;;
30048;SDS011;16879;50.852;15.602;2024-01-27T10:25:11;15.65;;;3.33;;
30048;SDS011;16879;50.852;15.602;2024-01-27T10:27:38;17.52;;;5.22;;
30048;SDS011;16879;50.852;15.602;2024-01-27T10:30:08;12.18;;;4.10;;
30048;SDS011;16879;50.852;15.602;2024-01-27T10:32:40;11.73;;;3.10;;
30048;SDS011;16879;50.852;15.602;2024-01-27T10:35:07;14.45;;;3.83;;
30048;SDS011;16879;50.852;15.602;2024-01-27T10:37:33;14.73;;;5.00;;
30048;SDS011;16879;50.852;15.602;2024-01-27T10:40:03;13.70;;;2.90;;
30048;SDS011;16879;50.852;15.602;2024-01-27T10:42:29;16.42;;;4.30;;
30048;SDS011;16879;50.852;15.602;2024-01-27T10:44:58;18.02;;;5.28;;
30048;SDS011;16879;50.852;15.602;2024-01-27T10:47:28;22.15;;;7.25;;
30048;SDS011;16879;50.852;15.602;2024-01-27T10:49:54;17.67;;;4.03;;
30048;SDS011;16879;50.852;15.602;2024-01-27T10:52:32;20.90;;;4.60;;
30048;SDS011;16879;50.852;15.602;2024-01-27T10:55:03;10.40;;;3.13;;
30048;SDS011;16879;50.852;15.602;2024-01-27T10:57:35;14.88;;;3.42;;
30048;SDS011;16879;50.852;15.602;2024-01-27T11:00:03;14.13;;;3.10;;
30048;SDS011;16879;50.852;15.602;2024-01-27T11:02:34;17.85;;;4.30;;
30048;SDS011;16879;50.852;15.602;2024-01-27T11:05:04;15.35;;;3.60;;
30048;SDS011;16879;50.852;15.602;2024-01-27T11:07:32;17.63;;;3.17;;
30048;SDS011;16879;50.852;15.602;2024-01-27T11:10:00;17.38;;;4.45;;
30048;SDS011;16879;50.852;15.602;2024-01-27T11:12:26;18.73;;;3.92;;
30048;SDS011;16879;50.852;15.602;2024-01-27T11:14:52;11.75;;;3.55;;
30048;SDS011;16879;50.852;15.602;2024-01-27T11:17:19;14.50;;;3.65;;
30048;SDS011;16879;50.852;15.602;2024-01-27T11:19:45;16.45;;;5.28;;
30048;SDS011;16879;50.852;15.602;2024-01-27T11:27:34;19.80;;;4.20;;
30048;SDS011;16879;50.852;15.602;2024-01-27T11:30:01;12.77;;;3.25;;
30048;SDS011;16879;50.852;15.602;2024-01-27T11:32:27;17.58;;;4.97;;
30048;SDS011;16879;50.852;15.602;2024-01-27T11:34:55;22.95;;;5.32;;
30048;SDS011;16879;50.852;15.602;2024-01-27T11:37:21;11.77;;;3.58;;
30048;SDS011;16879;50.852;15.602;2024-01-27T11:39:50;15.60;;;6.00;;
30048;SDS011;16879;50.852;15.602;2024-01-27T11:42:17;15.52;;;5.00;;
30048;SDS011;16879;50.852;15.602;2024-01-27T11:44:43;17.70;;;6.45;;
30048;SDS011;16879;50.852;15.602;2024-01-27T11:47:15;19.00;;;7.05;;
30048;SDS011;16879;50.852;15.602;2024-01-27T11:49:42;22.83;;;7.43;;
30048;SDS011;16879;50.852;15.602;2024-01-27T11:52:09;13.70;;;4.07;;
30048;SDS011;16879;50.852;15.602;2024-01-27T11:54:35;19.67;;;4.25;;
30048;SDS011;16879;50.852;15.602;2024-01-27T11:57:03;24.35;;;4.55;;
30048;SDS011;16879;50.852;15.602;2024-01-27T11:59:30;18.63;;;5.47;;
30048;SDS011;16879;50.852;15.602;2024-01-27T12:01:56;20.77;;;5.55;;
30048;SDS011;16879;50.852;15.602;2024-01-27T12:04:21;17.13;;;3.80;;
30048;SDS011;16879;50.852;15.602;2024-01-27T12:06:47;13.25;;;6.15;;
30048;SDS011;16879;50.852;15.602;2024-01-27T12:09:14;19.65;;;8.13;;
30048;SDS011;16879;50.852;15.602;2024-01-27T12:11:41;18.20;;;3.65;;
30048;SDS011;16879;50.852;15.602;2024-01-27T12:14:07;32.17;;;8.50;;
30048;SDS011;16879;50.852;15.602;2024-01-27T12:16:33;41.08;;;15.45;;
30048;SDS011;16879;50.852;15.602;2024-01-27T12:18:59;25.38;;;8.57;;
30048;SDS011;16879;50.852;15.602;2024-01-27T12:21:25;27.98;;;8.38;;
30048;SDS011;16879;50.852;15.602;2024-01-27T12:23:55;21.42;;;8.32;;
30048;SDS011;16879;50.852;15.602;2024-01-27T12:26:22;16.52;;;4.28;;
30048;SDS011;16879;50.852;15.602;2024-01-27T12:28:48;17.70;;;4.32;;
30048;SDS011;16879;50.852;15.602;2024-01-27T12:31:15;22.23;;;5.47;;
30048;SDS011;16879;50.852;15.602;2024-01-27T12:33:47;18.15;;;4.60;;
30048;SDS011;16879;50.852;15.602;2024-01-27T12:36:14;19.73;;;7.17;;
30048;SDS011;16879;50.852;15.602;2024-01-27T12:38:41;23.52;;;4.85;;
30048;SDS011;16879;50.852;15.602;2024-01-27T12:41:06;26.50;;;10.45;;
30048;SDS011;16879;50.852;15.602;2024-01-27T12:43:32;18.13;;;5.53;;
30048;SDS011;16879;50.852;15.602;2024-01-27T12:45:59;27.58;;;9.85;;
30048;SDS011;16879;50.852;15.602;2024-01-27T12:48:24;15.57;;;6.30;;
30048;SDS011;16879;50.852;15.602;2024-01-27T12:50:50;21.42;;;5.10;;
30048;SDS011;16879;50.852;15.602;2024-01-27T12:53:18;20.13;;;4.97;;
30048;SDS011;16879;50.852;15.602;2024-01-27T12:55:44;22.10;;;5.57;;
30048;SDS011;16879;50.852;15.602;2024-01-27T12:58:10;16.38;;;5.72;;
30048;SDS011;16879;50.852;15.602;2024-01-27T13:00:36;17.85;;;5.57;;
30048;SDS011;16879;50.852;15.602;2024-01-27T13:03:03;21.73;;;5.13;;
30048;SDS011;16879;50.852;15.602;2024-01-27T13:05:29;17.23;;;6.80;;
30048;SDS011;16879;50.852;15.602;2024-01-27T13:07:55;15.55;;;4.57;;
30048;SDS011;16879;50.852;15.602;2024-01-27T13:10:21;24.25;;;6.35;;
30048;SDS011;16879;50.852;15.602;2024-01-27T13:12:46;16.45;;;6.00;;
30048;SDS011;16879;50.852;15.602;2024-01-27T13:15:12;20.10;;;6.13;;
30048;SDS011;16879;50.852;15.602;2024-01-27T13:17:39;14.77;;;4.82;;
30048;SDS011;16879;50.852;15.602;2024-01-27T13:20:06;21.80;;;5.82;;
30048;SDS011;16879;50.852;15.602;2024-01-27T13:22:32;29.30;;;9.98;;
30048;SDS011;16879;50.852;15.602;2024-01-27T13:24:58;22.02;;;6.75;;
30048;SDS011;16879;50.852;15.602;2024-01-27T13:27:26;13.55;;;4.82;;
30048;SDS011;16879;50.852;15.602;2024-01-27T13:29:52;24.08;;;10.20;;
30048;SDS011;16879;50.852;15.602;2024-01-27T13:32:19;19.20;;;8.82;;
30048;SDS011;16879;50.852;15.602;2024-01-27T13:34:44;31.35;;;8.95;;
30048;SDS011;16879;50.852;15.602;2024-01-27T13:37:12;15.70;;;5.95;;
30048;SDS011;16879;50.852;15.602;2024-01-27T13:39:41;22.20;;;6.40;;
30048;SDS011;16879;50.852;15.602;2024-01-27T13:42:07;23.65;;;6.68;;
30048;SDS011;16879;50.852;15.602;2024-01-27T13:44:33;29.65;;;9.40;;
30048;SDS011;16879;50.852;15.602;2024-01-27T13:47:01;24.25;;;9.50;;
30048;SDS011;16879;50.852;15.602;2024-01-27T13:49:29;26.73;;;7.38;;
30048;SDS011;16879;50.852;15.602;2024-01-27T13:51:56;22.33;;;7.32;;
30048;SDS011;16879;50.852;15.602;2024-01-27T13:54:22;18.77;;;4.80;;
30048;SDS011;16879;50.852;15.602;2024-01-27T13:56:48;20.70;;;4.30;;
30048;SDS011;16879;50.852;15.602;2024-01-27T13:59:15;16.67;;;4.53;;
30048;SDS011;16879;50.852;15.602;2024-01-27T14:01:41;17.00;;;7.53;;
30048;SDS011;16879;50.852;15.602;2024-01-27T14:04:07;11.52;;;4.70;;
30048;SDS011;16879;50.852;15.602;2024-01-27T14:09:07;12.23;;;3.90;;
30048;SDS011;16879;50.852;15.602;2024-01-27T14:11:33;14.93;;;3.85;;
30048;SDS011;16879;50.852;15.602;2024-01-27T14:13:59;30.73;;;8.75;;
30048;SDS011;16879;50.852;15.602;2024-01-27T14:16:25;20.38;;;7.13;;
30048;SDS011;16879;50.852;15.602;2024-01-27T14:18:51;19.48;;;6.50;;
30048;SDS011;16879;50.852;15.602;2024-01-27T14:21:17;13.57;;;5.43;;
30048;SDS011;16879;50.852;15.602;2024-01-27T14:23:43;11.15;;;5.18;;
30048;SDS011;16879;50.852;15.602;2024-01-27T14:26:09;33.65;;;10.68;;
30048;SDS011;16879;50.852;15.602;2024-01-27T14:28:40;18.90;;;4.93;;